Time;durP1;ratioP1;P1;durP2;ratioP2;P2;SDS_P1;SDS_P2;PMS_P1;PMS_P2;Temp;Humidity;BMP_temperature;BMP_pressure;BME280_temperature;BME280_humidity;BME280_pressure;Samples;Min_cycle;Max_cycle;Signal;HPM_P1;HPM_P2
2022/03/27 00:02:10;;;;;;;11.73;5.88;;;;;;;8.53;86.35;103088.09;5052892;28;20025;-75
2022/03/27 00:04:36;;;;;;;12.32;5.88;;;;;;;8.50;87.54;103085.72;5052507;28;20461;-75
2022/03/27 00:07:01;;;;;;;14.95;6.50;;;;;;;8.39;87.30;103072.44;5052354;28;20021;-75
2022/03/27 00:09:27;;;;;;;10.40;5.28;;;;;;;8.45;87.80;103085.25;5051071;28;20025;-75
2022/03/27 00:11:52;;;;;;;16.15;7.15;;;;;;;8.38;87.48;103084.03;5052329;28;20163;-75
2022/03/27 00:14:17;;;;;;;14.50;7.00;;;;;;;8.39;88.72;103094.56;5052612;28;20036;-75
2022/03/27 00:16:43;;;;;;;11.88;6.32;;;;;;;8.36;88.32;103092.16;5052167;28;20028;-75
2022/03/27 00:19:08;;;;;;;12.43;6.20;;;;;;;8.31;88.56;103081.03;5050409;28;20037;-75
2022/03/27 00:21:34;;;;;;;15.18;6.57;;;;;;;8.29;88.36;103082.97;5051990;28;20025;-75
2022/03/27 00:23:59;;;;;;;12.50;5.80;;;;;;;8.31;88.79;103091.69;5051891;28;20021;-75
2022/03/27 00:26:25;;;;;;;10.90;5.30;;;;;;;8.27;88.89;103079.59;5052159;28;20472;-75
2022/03/27 00:28:51;;;;;;;10.75;5.40;;;;;;;8.27;89.53;103087.56;5051873;28;20032;-75
2022/03/27 00:31:17;;;;;;;10.23;4.88;;;;;;;8.24;89.62;103093.16;5050442;28;20083;-75
2022/03/27 00:33:43;;;;;;;12.00;5.25;;;;;;;8.20;89.60;103091.69;5050341;28;20041;-75
2022/03/27 00:36:10;;;;;;;14.35;6.28;;;;;;;8.19;89.67;103087.38;5051604;28;20118;-75
2022/03/27 00:38:37;;;;;;;12.73;6.15;;;;;;;8.16;89.96;103088.44;5050674;28;20380;-75
2022/03/27 00:41:04;;;;;;;11.00;5.40;;;;;;;8.11;90.35;103083.50;5051861;28;20024;-75
2022/03/27 00:43:30;;;;;;;10.65;4.97;;;;;;;8.13;90.28;103088.72;5051688;28;20025;-75
2022/03/27 00:45:56;;;;;;;11.35;5.25;;;;;;;8.06;90.85;103071.56;5051375;28;20083;-75
2022/03/27 00:48:22;;;;;;;12.20;5.72;;;;;;;8.06;91.15;103084.84;5050231;28;20033;-75
2022/03/27 00:50:49;;;;;;;16.50;6.40;;;;;;;8.04;90.70;103082.34;5051411;28;20111;-75
2022/03/27 00:53:15;;;;;;;13.90;5.63;;;;;;;8.03;91.27;103085.94;5051531;28;20028;-75
2022/03/27 00:55:41;;;;;;;12.90;6.80;;;;;;;8.03;91.37;103095.75;5051558;28;20152;-75
2022/03/27 00:58:08;;;;;;;16.35;6.78;;;;;;;8.00;91.48;103096.00;5051654;28;20029;-75
2022/03/27 01:00:45;;;;;;;11.52;5.18;;;;;;;7.95;91.02;103093.69;5051684;28;20028;-75
2022/03/27 01:03:23;;;;;;;11.77;6.07;;;;;;;7.88;90.10;103085.38;5051255;28;20040;-75
2022/03/27 01:05:49;;;;;;;8.85;4.50;;;;;;;7.83;90.06;103092.03;5050770;28;20158;-75
2022/03/27 01:08:16;;;;;;;9.32;5.07;;;;;;;7.78;90.27;103091.53;5051335;28;20060;-75
2022/03/27 01:10:42;;;;;;;9.68;5.05;;;;;;;7.73;90.65;103083.97;5049787;28;20037;-75
2022/03/27 01:13:12;;;;;;;12.15;5.93;;;;;;;7.70;91.36;103084.19;5051082;28;20112;-75
2022/03/27 01:15:41;;;;;;;10.88;4.85;;;;;;;7.62;91.34;103073.34;5051145;28;20029;-75
2022/03/27 01:18:07;;;;;;;13.10;6.43;;;;;;;7.62;91.99;103084.81;5050771;28;20551;-75
2022/03/27 01:20:34;;;;;;;13.48;6.13;;;;;;;7.59;92.47;103078.91;5050511;28;20120;-75
2022/03/27 01:23:01;;;;;;;12.25;5.80;;;;;;;7.56;92.58;103077.34;5051112;28;20112;-74
2022/03/27 01:25:26;;;;;;;12.55;6.70;;;;;;;7.57;92.34;103083.47;5050749;28;20033;-74
2022/03/27 01:27:52;;;;;;;15.52;6.38;;;;;;;7.54;92.52;103078.41;5050773;28;20048;-74
2022/03/27 01:30:17;;;;;;;14.50;6.05;;;;;;;7.49;92.19;103077.94;5050781;28;20036;-74
2022/03/27 01:32:43;;;;;;;13.80;5.82;;;;;;;7.39;92.01;103077.84;5050432;28;20480;-74
2022/03/27 01:35:10;;;;;;;18.10;7.32;;;;;;;7.22;92.09;103058.75;5049259;28;20045;-74
2022/03/27 01:37:36;;;;;;;12.95;6.05;;;;;;;7.29;93.39;103085.66;5049511;28;20025;-74
2022/03/27 01:40:02;;;;;;;13.25;6.18;;;;;;;7.20;93.62;103066.00;5050730;28;20040;-74
2022/03/27 01:42:27;;;;;;;15.95;7.57;;;;;;;7.28;93.82;103080.47;5050543;28;20036;-74
2022/03/27 01:44:53;;;;;;;13.93;6.57;;;;;;;7.24;93.91;103074.56;5049298;28;20106;-74
2022/03/27 01:47:19;;;;;;;16.77;6.75;;;;;;;7.27;94.97;103074.31;5050615;28;20039;-74
2022/03/27 01:49:44;;;;;;;16.25;7.93;;;;;;;7.24;94.50;103075.41;5050213;28;20037;-74
2022/03/27 01:52:09;;;;;;;17.10;7.05;;;;;;;7.23;94.49;103073.72;5050194;28;20031;-74
2022/03/27 01:54:35;;;;;;;15.52;6.75;;;;;;;7.21;94.52;103066.84;5048805;28;20071;-74
2022/03/27 01:57:02;;;;;;;12.50;6.07;;;;;;;7.19;94.20;103068.78;5050202;28;20040;-74
2022/03/27 01:59:27;;;;;;;10.23;5.60;;;;;;;7.16;94.63;103064.53;5050297;28;20017;-74
2022/03/27 02:01:53;;;;;;;17.75;6.78;;;;;;;7.18;94.52;103067.09;5050214;28;20045;-74
2022/03/27 02:04:18;;;;;;;12.68;6.38;;;;;;;7.21;94.45;103067.69;5050149;28;20056;-74
2022/03/27 02:06:44;;;;;;;16.67;7.93;;;;;;;7.24;95.02;103074.56;5050323;28;20048;-74
2022/03/27 02:09:12;;;;;;;14.60;6.63;;;;;;;7.26;95.15;103072.63;5049648;28;20025;-74
2022/03/27 02:11:38;;;;;;;15.23;6.65;;;;;;;7.28;95.78;103067.19;5050350;28;20423;-74
2022/03/27 02:14:04;;;;;;;19.70;7.80;;;;;;;7.30;96.23;103068.75;5049592;28;20078;-74
2022/03/27 02:16:29;;;;;;;16.58;7.90;;;;;;;7.35;96.32;103069.25;5048526;28;20045;-74
2022/03/27 02:18:55;;;;;;;19.20;8.70;;;;;;;7.42;95.89;103080.25;5049827;28;20056;-74
2022/03/27 02:21:20;;;;;;;18.30;8.07;;;;;;;7.41;95.85;103078.53;5049881;28;20028;-74
2022/03/27 02:23:45;;;;;;;24.90;10.65;;;;;;;7.42;97.66;103075.78;5050068;28;20025;-74
2022/03/27 02:26:11;;;;;;;21.88;10.27;;;;;;;7.42;97.55;103081.09;5048559;28;20044;-74
2022/03/27 02:28:38;;;;;;;18.38;8.07;;;;;;;7.43;96.90;103089.88;5049966;28;20036;-74
2022/03/27 02:31:04;;;;;;;18.25;8.27;;;;;;;7.39;96.40;103075.19;5050046;28;20060;-74
2022/03/27 02:33:29;;;;;;;17.88;8.25;;;;;;;7.40;96.35;103088.31;5049110;28;20145;-75
2022/03/27 02:35:54;;;;;;;18.05;9.10;;;;;;;7.32;96.91;103082.78;5048527;28;20109;-75
2022/03/27 02:38:20;;;;;;;18.77;8.68;;;;;;;7.31;97.16;103081.09;5049767;28;20032;-75
2022/03/27 02:40:46;;;;;;;19.02;9.35;;;;;;;7.31;97.59;103085.53;5049524;28;20480;-75
2022/03/27 02:43:12;;;;;;;17.75;8.27;;;;;;;7.24;98.00;103078.06;5048227;28;20033;-75
2022/03/27 02:45:38;;;;;;;21.13;9.30;;;;;;;7.26;98.51;103077.94;5050036;28;20108;-75
2022/03/27 02:48:04;;;;;;;18.88;8.73;;;;;;;7.27;98.30;103078.78;5049762;28;20532;-75
2022/03/27 02:50:30;;;;;;;21.85;8.50;;;;;;;7.26;98.44;103080.59;5049750;28;20029;-75
2022/03/27 02:52:57;;;;;;;18.15;8.57;;;;;;;7.26;98.11;103085.91;5049404;28;20034;-75
2022/03/27 02:55:24;;;;;;;18.45;9.18;;;;;;;7.22;98.34;103074.66;5049431;28;20043;-75
2022/03/27 02:57:50;;;;;;;17.33;8.82;;;;;;;7.28;99.29;103083.13;5049892;28;20043;-75
2022/03/27 03:00:16;;;;;;;19.33;9.35;;;;;;;7.24;98.85;103080.72;5049521;28;20091;-75
2022/03/27 03:02:42;;;;;;;18.83;9.07;;;;;;;7.28;100.00;103083.13;5049212;28;20116;-75
2022/03/27 03:05:09;;;;;;;21.83;10.90;;;;;;;7.27;100.00;103082.28;5049622;28;20123;-75
2022/03/27 03:07:35;;;;;;;21.20;10.75;;;;;;;7.30;100.00;103081.19;5049384;28;20098;-75
2022/03/27 03:10:02;;;;;;;21.42;10.48;;;;;;;7.31;99.31;103074.91;5049264;28;20029;-75
2022/03/27 03:12:27;;;;;;;19.20;10.45;;;;;;;7.29;99.74;103069.75;5049559;28;20088;-75
2022/03/27 03:14:55;;;;;;;19.88;9.48;;;;;;;7.30;99.79;103079.38;5049047;28;20029;-75
2022/03/27 03:17:21;;;;;;;22.48;11.68;;;;;;;7.30;100.00;103073.22;5047636;28;20028;-75
2022/03/27 03:19:47;;;;;;;21.75;10.95;;;;;;;7.29;99.87;103067.09;5049426;28;20028;-75
2022/03/27 03:22:12;;;;;;;21.83;12.05;;;;;;;7.30;99.97;103065.28;5049540;28;20037;-75
2022/03/27 03:24:38;;;;;;;27.73;10.75;;;;;;;7.24;99.82;103064.78;5049161;28;20025;-75
2022/03/27 03:27:03;;;;;;;25.20;10.45;;;;;;;7.23;99.77;103062.25;5049050;28;20047;-75
2022/03/27 03:29:29;;;;;;;20.10;9.25;;;;;;;7.21;100.00;103064.19;5049410;28;20036;-75
2022/03/27 03:31:54;;;;;;;21.55;10.68;;;;;;;7.20;100.00;103062.47;5049402;28;20475;-75
2022/03/27 03:34:20;;;;;;;22.70;10.40;;;;;;;7.16;100.00;103055.75;5049245;28;20107;-75
2022/03/27 03:36:45;;;;;;;23.10;11.45;;;;;;;7.19;100.00;103052.84;5049326;28;20064;-75
2022/03/27 03:39:11;;;;;;;21.40;10.25;;;;;;;7.16;100.00;103056.59;5047886;28;20033;-75
2022/03/27 03:41:36;;;;;;;24.20;12.15;;;;;;;7.21;100.00;103072.16;5049393;28;20025;-75
2022/03/27 03:44:02;;;;;;;23.35;13.02;;;;;;;7.15;100.00;103059.34;5051324;28;20083;-75
2022/03/27 03:46:27;;;;;;;25.27;12.38;;;;;;;7.13;100.00;103056.00;5052946;28;20032;-75
2022/03/27 03:48:53;;;;;;;25.30;12.07;;;;;;;7.15;100.00;103059.34;5051564;28;20040;-75
2022/03/27 03:51:19;;;;;;;23.33;10.98;;;;;;;7.17;100.00;103055.59;5052991;28;20060;-75
2022/03/27 03:53:44;;;;;;;22.25;12.70;;;;;;;7.15;100.00;103056.69;5052818;28;20024;-75
2022/03/27 03:56:11;;;;;;;23.92;12.10;;;;;;;7.19;100.00;103058.16;5052957;28;20033;-75
2022/03/27 03:58:36;;;;;;;25.85;13.88;;;;;;;7.17;100.00;103060.06;5053332;28;20384;-75
2022/03/27 04:01:03;;;;;;;22.52;11.80;;;;;;;7.15;100.00;103060.22;5052960;28;20033;-75
2022/03/27 04:03:29;;;;;;;22.10;11.38;;;;;;;7.18;100.00;103053.81;5052607;28;20460;-75
2022/03/27 04:05:55;;;;;;;23.60;12.73;;;;;;;7.13;100.00;103056.81;5052694;28;20488;-75
2022/03/27 04:08:20;;;;;;;24.55;10.27;;;;;;;7.16;100.00;103064.53;5052766;28;20060;-75
2022/03/27 04:10:46;;;;;;;26.10;11.82;;;;;;;7.13;100.00;103063.94;5052200;28;20032;-75
2022/03/27 04:13:11;;;;;;;21.50;10.38;;;;;;;7.05;100.00;103063.66;5052243;28;20476;-75
2022/03/27 04:15:38;;;;;;;23.38;10.13;;;;;;;6.95;100.00;103063.56;5052642;28;20047;-75
2022/03/27 04:18:04;;;;;;;19.35;8.50;;;;;;;6.88;100.00;103065.00;5052123;28;20139;-75
2022/03/27 04:20:29;;;;;;;21.30;8.48;;;;;;;6.82;100.00;103078.72;5051912;28;20512;-75
2022/03/27 04:22:55;;;;;;;20.95;8.75;;;;;;;6.77;100.00;103068.47;5052173;28;20036;-75
2022/03/27 04:25:20;;;;;;;18.45;7.82;;;;;;;6.71;100.00;103075.09;5051972;28;20031;-75
2022/03/27 04:27:46;;;;;;;20.88;8.70;;;;;;;6.68;100.00;103061.19;5050566;28;20068;-75
2022/03/27 04:30:12;;;;;;;21.83;9.68;;;;;;;6.64;100.00;103062.41;5051175;28;20060;-75
2022/03/27 04:32:38;;;;;;;24.08;10.18;;;;;;;6.64;100.00;103067.69;5051619;28;20179;-75
2022/03/27 04:35:04;;;;;;;22.45;10.88;;;;;;;6.63;100.00;103066.00;5051669;28;20045;-75
2022/03/27 04:37:30;;;;;;;23.27;9.63;;;;;;;6.64;100.00;103067.69;5050195;28;20039;-75
2022/03/27 04:40:02;;;;;;;23.52;8.70;;;;;;;6.63;100.00;103063.34;5051728;28;20029;-75
2022/03/27 04:42:28;;;;;;;22.40;9.55;;;;;;;6.62;100.00;103072.28;5051517;28;20029;-74
2022/03/27 04:44:54;;;;;;;20.58;9.60;;;;;;;6.64;100.00;103073.00;5050231;28;20047;-74
2022/03/27 04:47:19;;;;;;;23.60;9.82;;;;;;;6.57;100.00;103062.00;5051538;28;20089;-74
2022/03/27 04:49:45;;;;;;;24.95;11.13;;;;;;;6.50;100.00;103055.50;5050401;28;20043;-75
2022/03/27 04:52:11;;;;;;;23.27;11.80;;;;;;;6.56;100.00;103077.06;5051513;28;20032;-75
2022/03/27 04:54:37;;;;;;;23.70;10.38;;;;;;;6.59;100.00;103076.00;5051225;28;20025;-75
2022/03/27 04:57:03;;;;;;;22.83;10.27;;;;;;;6.55;100.00;103069.25;5051276;28;20788;-75
2022/03/27 04:59:28;;;;;;;22.42;10.13;;;;;;;6.57;100.00;103076.09;5049979;28;20068;-75
2022/03/27 05:01:54;;;;;;;23.75;9.95;;;;;;;6.57;100.00;103086.69;5051376;28;20029;-75
2022/03/27 05:04:19;;;;;;;24.05;10.85;;;;;;;6.55;100.00;103083.34;5051157;28;20036;-75
2022/03/27 05:06:44;;;;;;;22.83;10.38;;;;;;;6.56;100.00;103092.13;5049957;28;20036;-75
2022/03/27 05:09:10;;;;;;;24.52;11.10;;;;;;;6.54;100.00;103094.06;5049744;28;20029;-75
2022/03/27 05:11:36;;;;;;;27.02;10.98;;;;;;;6.52;100.00;103088.88;5049649;28;20366;-75
2022/03/27 05:14:02;;;;;;;27.50;10.60;;;;;;;6.54;100.00;103094.88;5051162;28;20349;-75
2022/03/27 05:16:27;;;;;;;23.80;10.75;;;;;;;6.52;100.00;103086.22;5051550;28;20036;-75
2022/03/27 05:18:52;;;;;;;25.00;10.95;;;;;;;6.55;100.00;103087.81;5049554;28;20396;-75
2022/03/27 05:21:18;;;;;;;26.38;12.77;;;;;;;6.54;100.00;103094.88;5050994;28;20033;-75
2022/03/27 05:23:43;;;;;;;23.40;9.82;;;;;;;6.52;100.00;103095.97;5050280;28;20402;-75
2022/03/27 05:26:08;;;;;;;24.35;10.00;;;;;;;6.51;100.00;103094.28;5050629;28;20545;-75
2022/03/27 05:28:34;;;;;;;30.13;12.68;;;;;;;6.45;100.00;103086.81;5049180;28;20063;-75
2022/03/27 05:31:01;;;;;;;25.80;12.25;;;;;;;6.47;100.00;103092.81;5050598;28;20380;-75
2022/03/27 05:33:26;;;;;;;22.75;9.50;;;;;;;6.44;100.00;103091.22;5049221;28;20132;-75
2022/03/27 05:35:53;;;;;;;32.40;13.43;;;;;;;6.41;100.00;103091.47;5050530;28;20560;-75
2022/03/27 05:38:19;;;;;;;29.50;11.30;;;;;;;6.42;100.00;103092.31;5050332;28;20029;-75
2022/03/27 05:40:45;;;;;;;27.83;11.63;;;;;;;6.38;100.00;103091.69;5050216;28;20108;-75
2022/03/27 05:43:10;;;;;;;27.20;11.75;;;;;;;6.36;100.00;103089.16;5049220;28;20112;-75
2022/03/27 05:45:36;;;;;;;29.13;12.75;;;;;;;6.37;100.00;103092.66;5050198;28;20029;-75
2022/03/27 05:48:03;;;;;;;29.08;11.82;;;;;;;6.36;100.00;103090.97;5050311;28;20498;-75
2022/03/27 05:50:28;;;;;;;29.95;11.18;;;;;;;6.38;100.00;103089.06;5050169;28;20044;-75
2022/03/27 05:52:54;;;;;;;33.05;15.10;;;;;;;6.36;100.00;103098.91;5050217;28;20392;-75
2022/03/27 05:55:21;;;;;;;31.17;14.18;;;;;;;6.35;100.00;103095.44;5049917;28;20036;-75
2022/03/27 05:57:46;;;;;;;36.58;13.75;;;;;;;6.38;100.00;103096.16;5048333;28;20472;-75
2022/03/27 06:00:16;;;;;;;34.03;13.95;;;;;;;6.41;100.00;103103.88;5050048;28;20039;-75
2022/03/27 06:02:42;;;;;;;29.77;12.85;;;;;;;6.43;100.00;103108.09;5050344;28;20033;-75
2022/03/27 06:05:08;;;;;;;36.47;14.52;;;;;;;6.49;100.00;103106.81;5050048;28;20403;-75
2022/03/27 06:07:47;;;;;;;36.38;14.77;;;;;;;6.47;100.00;103098.13;5048932;28;20028;-75
2022/03/27 06:10:16;;;;;;;33.15;12.65;;;;;;;6.50;100.00;103111.16;5049673;28;20024;-75
2022/03/27 06:12:45;;;;;;;32.75;13.07;;;;;;;6.50;100.00;103108.50;5049928;28;20484;-75
2022/03/27 06:15:12;;;;;;;32.13;14.68;;;;;;;6.55;100.00;103116.97;5032276;28;20037;-75
2022/03/27 06:17:43;;;;;;;39.95;18.92;;;;;;;6.57;100.00;103122.97;5049881;28;20393;-75
2022/03/27 06:20:12;;;;;;;29.77;12.45;;;;;;;6.53;100.00;103121.53;5049319;28;20376;-75
2022/03/27 06:22:39;;;;;;;33.75;15.25;;;;;;;6.57;100.00;103121.16;5049717;28;20033;-75
2022/03/27 06:25:05;;;;;;;30.00;12.43;;;;;;;6.59;100.00;103132.50;5048437;28;20361;-75
2022/03/27 06:27:30;;;;;;;29.40;12.27;;;;;;;6.61;100.00;103127.13;5048227;28;20048;-75
2022/03/27 06:29:55;;;;;;;25.67;11.88;;;;;;;6.59;100.00;103121.06;5048097;28;20044;-75
2022/03/27 06:32:21;;;;;;;29.45;12.48;;;;;;;6.58;100.00;103136.13;5049131;28;20056;-75
2022/03/27 06:34:46;;;;;;;25.70;12.10;;;;;;;6.56;100.00;103130.09;5049519;28;20541;-75
2022/03/27 06:37:11;;;;;;;26.85;11.25;;;;;;;6.58;100.00;103135.31;5047871;28;20603;-75
2022/03/27 06:39:37;;;;;;;28.83;11.30;;;;;;;6.57;100.00;103138.88;5049731;28;21137;-75
2022/03/27 06:42:02;;;;;;;24.33;11.35;;;;;;;6.58;100.00;103132.66;5047986;28;20480;-75
2022/03/27 06:44:28;;;;;;;24.38;10.77;;;;;;;6.51;100.00;103140.19;5048281;28;20032;-75
2022/03/27 06:46:54;;;;;;;29.30;10.35;;;;;;;6.48;100.00;103137.78;5049049;28;20033;-75
2022/03/27 06:49:19;;;;;;;25.48;11.35;;;;;;;6.48;100.00;103132.47;5049462;28;20120;-75
2022/03/27 06:51:44;;;;;;;28.45;10.52;;;;;;;6.44;100.00;103123.03;5049439;28;20029;-75
2022/03/27 06:54:10;;;;;;;32.30;12.40;;;;;;;6.48;100.00;103128.97;5049507;28;20143;-75
2022/03/27 06:56:36;;;;;;;30.00;12.30;;;;;;;6.51;100.00;103129.59;5047945;28;20080;-74
2022/03/27 06:59:02;;;;;;;29.17;12.93;;;;;;;6.56;100.00;103129.25;5049380;28;20599;-74
2022/03/27 07:04:11;;;;;;;28.75;11.70;;;;;;;6.55;100.00;103124.94;5049649;28;20519;-74
2022/03/27 07:06:38;;;;;;;28.77;12.55;;;;;;;6.59;100.00;103131.69;5048167;28;20029;-74
2022/03/27 07:09:04;;;;;;;26.67;12.73;;;;;;;6.58;100.00;103132.66;5049414;28;20036;-75
2022/03/27 07:11:29;;;;;;;26.90;12.27;;;;;;;6.54;100.00;103126.72;5049290;28;20074;-75
2022/03/27 07:13:55;;;;;;;27.52;11.90;;;;;;;6.49;100.00;103122.72;5049448;28;20405;-75
2022/03/27 07:16:20;;;;;;;30.45;14.30;;;;;;;6.51;100.00;103126.94;5047758;28;20033;-75
2022/03/27 07:18:49;;;;;;;28.02;12.02;;;;;;;6.53;100.00;103129.50;5050843;28;20025;-75
2022/03/27 07:21:16;;;;;;;27.45;11.82;;;;;;;6.55;100.00;103138.19;5052627;28;20033;-75
2022/03/27 07:23:42;;;;;;;33.53;13.05;;;;;;;6.55;100.00;103136.38;5053063;28;20044;-75
2022/03/27 07:26:08;;;;;;;26.48;12.20;;;;;;;6.55;100.00;103133.72;5053145;28;20029;-75
2022/03/27 07:28:35;;;;;;;22.58;10.15;;;;;;;6.55;100.00;103130.22;5052897;28;20040;-75
2022/03/27 07:31:00;;;;;;;23.52;11.75;;;;;;;6.51;100.00;103132.25;5052582;28;20029;-75
2022/03/27 07:33:27;;;;;;;21.73;10.30;;;;;;;6.49;100.00;103133.31;5051297;28;20059;-75
2022/03/27 07:35:53;;;;;;;26.23;12.00;;;;;;;6.44;100.00;103122.19;5052313;28;20391;-76
2022/03/27 07:38:18;;;;;;;25.23;10.77;;;;;;;6.43;100.00;103131.13;5052598;28;20028;-75
2022/03/27 07:40:45;;;;;;;20.58;8.45;;;;;;;6.39;100.00;103133.13;5052635;28;20108;-75
2022/03/27 07:43:10;;;;;;;23.45;10.60;;;;;;;6.35;100.00;103129.03;5052467;28;20020;-75
2022/03/27 07:45:36;;;;;;;22.13;9.75;;;;;;;6.33;100.00;103142.38;5052561;28;20115;-75
2022/03/27 07:48:02;;;;;;;22.40;8.52;;;;;;;6.29;99.84;103143.59;5052345;28;20539;-75
2022/03/27 07:50:30;;;;;;;23.70;8.75;;;;;;;6.24;100.00;103140.44;5052463;28;20124;-75
2022/03/27 07:52:56;;;;;;;23.17;9.02;;;;;;;6.26;100.00;103142.94;5052490;28;20476;-75
2022/03/27 07:55:22;;;;;;;20.85;8.93;;;;;;;6.29;99.78;103142.75;5052413;28;20115;-75
2022/03/27 07:57:48;;;;;;;23.35;8.10;;;;;;;6.29;99.71;103138.28;5084534;28;20033;-75
2022/03/27 08:00:16;;;;;;;19.67;8.25;;;;;;;6.26;99.53;103135.88;5052397;28;20029;-75
2022/03/27 08:02:42;;;;;;;24.45;11.63;;;;;;;6.24;100.00;103131.63;5051825;28;20040;-76
2022/03/27 08:05:09;;;;;;;22.67;8.95;;;;;;;6.26;100.00;103140.28;5051958;28;20025;-75
2022/03/27 08:07:35;;;;;;;21.38;8.88;;;;;;;6.28;100.00;103133.94;5051882;28;20029;-75
2022/03/27 08:10:00;;;;;;;21.25;9.13;;;;;;;6.25;100.00;103126.19;5052132;28;20043;-75
2022/03/27 08:12:26;;;;;;;20.98;8.15;;;;;;;6.29;100.00;103130.34;5051954;28;20028;-75
2022/03/27 08:14:52;;;;;;;23.02;11.50;;;;;;;6.30;100.00;103141.78;5051962;28;20079;-75
2022/03/27 08:17:17;;;;;;;22.33;8.55;;;;;;;6.34;100.00;103141.44;5052255;28;20476;-74
2022/03/27 08:19:47;;;;;;;23.20;10.45;;;;;;;6.29;100.00;103124.19;5051656;28;20108;-74
2022/03/27 08:22:13;;;;;;;23.02;10.85;;;;;;;6.39;100.00;103141.09;5051570;28;20021;-74
2022/03/27 08:24:38;;;;;;;28.30;9.73;;;;;;;6.42;100.00;103140.00;5051448;28;20039;-74
2022/03/27 08:27:04;;;;;;;26.13;11.00;;;;;;;6.40;99.57;103136.66;5051688;28;20037;-74
2022/03/27 08:29:31;;;;;;;23.08;9.90;;;;;;;6.43;100.00;103139.06;5049884;28;20033;-74
2022/03/27 08:32:00;;;;;;;23.63;9.65;;;;;;;6.44;99.63;103138.09;5051083;28;20436;-74
2022/03/27 08:34:28;;;;;;;24.73;10.85;;;;;;;6.43;99.87;103139.91;5051672;28;20442;-74
2022/03/27 08:36:54;;;;;;;23.17;9.85;;;;;;;6.55;99.77;103146.13;5051318;28;20083;-74
2022/03/27 08:39:20;;;;;;;26.42;11.25;;;;;;;6.54;99.27;103144.44;5051793;28;20116;-74
2022/03/27 08:41:48;;;;;;;23.50;10.32;;;;;;;6.55;98.75;103148.78;5052080;28;20180;-75
2022/03/27 08:44:15;;;;;;;25.88;10.55;;;;;;;6.56;99.44;103140.69;5051242;28;20090;-75
2022/03/27 08:46:42;;;;;;;21.83;9.82;;;;;;;6.63;99.14;103134.94;5051614;28;20024;-75
2022/03/27 08:49:25;;;;;;;24.10;10.70;;;;;;;6.71;98.86;103143.19;5051318;28;20056;-75
2022/03/27 08:52:08;;;;;;;22.42;8.45;;;;;;;6.69;98.49;103138.00;5051194;28;20029;-75
2022/03/27 08:55:07;;;;;;;22.42;11.75;;;;;;;6.79;98.47;103141.66;5051738;28;20021;-75
2022/03/27 08:57:56;;;;;;;21.90;9.88;;;;;;;6.82;98.01;103148.53;5028541;28;20047;-75
2022/03/27 09:00:23;;;;;;;26.27;9.10;;;;;;;6.89;98.14;103149.75;5051531;28;20118;-75
2022/03/27 09:02:49;;;;;;;22.85;9.88;;;;;;;6.97;97.30;103141.22;5051641;28;20087;-74
2022/03/27 09:05:15;;;;;;;19.42;8.40;;;;;;;7.22;96.38;103148.97;5051273;28;20044;-75
2022/03/27 09:07:41;;;;;;;19.00;8.18;;;;;;;7.47;95.00;103139.97;5049620;28;20029;-75
2022/03/27 09:10:11;;;;;;;20.80;8.82;;;;;;;7.88;93.81;103137.66;5051151;28;20546;-75
2022/03/27 09:12:36;;;;;;;21.65;9.82;;;;;;;8.06;91.84;103145.97;5051213;28;20033;-75
2022/03/27 09:15:08;;;;;;;22.20;9.45;;;;;;;7.99;90.71;103139.47;5050890;28;20031;-75
2022/03/27 09:17:54;;;;;;;20.85;9.13;;;;;;;8.00;91.59;103131.38;5050984;28;20036;-75
2022/03/27 09:20:46;;;;;;;20.95;8.18;;;;;;;8.21;91.64;103136.78;5050824;28;20379;-75
2022/03/27 09:23:22;;;;;;;21.38;8.88;;;;;;;8.38;90.25;103137.19;5049704;28;20732;-75
2022/03/27 09:25:58;;;;;;;21.13;9.05;;;;;;;8.70;89.99;103138.09;5050422;28;20123;-75
2022/03/27 09:28:35;;;;;;;22.05;9.73;;;;;;;8.91;88.68;103137.28;5050600;28;20082;-75
2022/03/27 09:31:22;;;;;;;21.98;8.50;;;;;;;8.95;86.70;103136.03;5046846;28;20056;-76
2022/03/27 09:33:55;;;;;;;21.20;9.15;;;;;;;8.89;87.89;103121.41;5044559;28;20531;-76
2022/03/27 09:36:30;;;;;;;19.10;8.15;;;;;;;9.14;88.73;103120.19;5044637;28;20029;-76
2022/03/27 09:39:18;;;;;;;19.85;8.25;;;;;;;9.31;87.11;103118.72;5061474;28;20563;-76
2022/03/27 09:41:48;;;;;;;19.20;7.25;;;;;;;9.43;87.81;103107.03;5044515;28;20035;-75
2022/03/27 09:44:17;;;;;;;18.65;7.82;;;;;;;9.53;84.05;103120.38;5044074;28;20480;-76
2022/03/27 09:46:51;;;;;;;19.60;7.93;;;;;;;9.59;84.07;103119.84;5076611;28;20020;-76
2022/03/27 09:49:19;;;;;;;21.00;8.93;;;;;;;9.67;83.81;103116.50;5045969;28;20063;-75
2022/03/27 09:52:10;;;;;;;19.63;8.07;;;;;;;9.68;83.95;103117.34;5044918;28;20100;-76
2022/03/27 09:54:58;;;;;;;18.17;7.13;;;;;;;9.77;83.17;103108.53;5045494;28;20299;-75
2022/03/27 09:57:32;;;;;;;21.45;9.02;;;;;;;9.86;83.58;103094.41;5076273;28;20566;-75
2022/03/27 10:00:12;;;;;;;20.58;9.32;;;;;;;10.10;84.77;103102.88;5059295;28;20041;-75
2022/03/27 10:02:41;;;;;;;15.45;6.63;;;;;;;10.29;80.85;103104.75;5049517;28;20443;-76
2022/03/27 10:05:07;;;;;;;21.55;8.02;;;;;;;10.35;81.78;103100.69;5049978;28;20107;-75
2022/03/27 10:07:38;;;;;;;22.23;8.95;;;;;;;10.39;80.82;103090.56;5049861;28;20037;-75
2022/03/27 10:10:05;;;;;;;17.93;8.87;;;;;;;10.55;79.61;103098.00;5048423;28;20113;-75
2022/03/27 10:12:34;;;;;;;19.90;9.32;;;;;;;10.72;79.33;103094.63;5049541;28;20051;-75
2022/03/27 10:15:03;;;;;;;19.65;9.43;;;;;;;10.73;76.83;103082.97;5049279;28;20358;-75
2022/03/27 10:17:32;;;;;;;17.50;8.55;;;;;;;10.73;76.88;103086.47;5049793;28;20064;-75
2022/03/27 10:20:04;;;;;;;18.13;8.13;;;;;;;10.89;77.65;103080.53;5049553;28;20032;-75
2022/03/27 10:22:30;;;;;;;19.77;10.20;;;;;;;10.97;75.24;103075.31;5049718;28;20122;-75
2022/03/27 10:25:00;;;;;;;17.75;7.25;;;;;;;10.97;75.17;103071.81;5049835;28;20059;-76
2022/03/27 10:27:28;;;;;;;18.15;7.93;;;;;;;11.00;74.63;103070.69;5049979;28;20389;-76
2022/03/27 10:29:54;;;;;;;21.92;7.80;;;;;;;11.04;73.82;103061.41;5047855;28;20123;-76
2022/03/27 10:32:20;;;;;;;15.95;7.70;;;;;;;11.28;75.01;103066.25;5049078;28;20076;-75
2022/03/27 10:35:23;;;;;;;15.52;7.47;;;;;;;11.50;70.02;103070.34;5049263;28;20125;-75
2022/03/27 10:38:04;;;;;;;17.27;7.72;;;;;;;11.52;69.79;103066.53;5047970;28;20025;-75
2022/03/27 10:40:55;;;;;;;14.15;6.30;;;;;;;11.57;71.41;103063.44;5049504;28;20033;-75
2022/03/27 10:43:45;;;;;;;17.10;7.15;;;;;;;11.63;71.05;103060.16;5036708;28;20090;-75
2022/03/27 10:46:21;;;;;;;19.55;6.95;;;;;;;11.82;72.98;103053.88;5049280;28;20033;-75
2022/03/27 10:48:49;;;;;;;15.55;7.15;;;;;;;12.02;71.41;103050.09;5049063;28;20025;-75
2022/03/27 10:51:28;;;;;;;15.57;6.80;;;;;;;12.05;68.92;103057.84;5049023;28;20388;-75
2022/03/27 10:54:19;;;;;;;17.70;6.82;;;;;;;12.06;67.60;103046.13;5048700;28;20479;-75
2022/03/27 10:56:50;;;;;;;15.43;7.53;;;;;;;12.06;68.07;103037.28;5049349;28;20244;-75
2022/03/27 10:59:25;;;;;;;15.45;6.35;;;;;;;12.17;66.23;103046.91;5048962;28;20044;-75
2022/03/27 11:01:53;;;;;;;18.38;7.25;;;;;;;12.35;67.91;103044.22;5049270;28;20021;-75
2022/03/27 11:04:36;;;;;;;14.05;6.97;;;;;;;12.41;63.95;103041.75;5049201;28;20489;-76
2022/03/27 11:07:17;;;;;;;13.88;5.07;;;;;;;12.43;63.03;103050.47;5047976;28;20021;-75
2022/03/27 11:09:46;;;;;;;11.97;5.20;;;;;;;12.45;62.46;103051.16;5049248;28;20028;-75
2022/03/27 11:12:30;;;;;;;11.00;5.45;;;;;;;12.41;63.70;103044.41;5048664;28;20442;-75
2022/03/27 11:15:02;;;;;;;13.18;5.80;;;;;;;12.46;62.68;103033.25;5047424;28;20437;-75
2022/03/27 11:17:35;;;;;;;11.85;4.60;;;;;;;12.63;61.78;103032.41;5049012;28;20086;-75
2022/03/27 11:20:06;;;;;;;12.68;5.90;;;;;;;12.76;61.08;103032.00;5048952;28;20021;-75
2022/03/27 11:22:51;;;;;;;12.45;5.20;;;;;;;12.87;63.17;103025.53;5048866;28;20594;-75
2022/03/27 11:25:46;;;;;;;10.48;4.28;;;;;;;12.87;59.76;103026.34;5048721;28;20468;-75